Time;durP1;ratioP1;P1;durP2;ratioP2;P2;SDS_P1;SDS_P2;PMS_P1;PMS_P2;Temp;Humidity;BMP_temperature;BMP_pressure;BME280_temperature;BME280_humidity;BME280_pressure;Samples;Min_cycle;Max_cycle;Signal;HPM_P1;HPM_P2
2021/01/27 00:00:25;;;;;;;12.23;6.70;;;;;;;1.49;89.06;99280.23;1724726;81;21562;-79
2021/01/27 00:02:53;;;;;;;12.07;6.73;;;;;;;1.49;89.21;99279.72;1732667;82;21143;-79
2021/01/27 00:05:29;;;;;;;10.65;6.37;;;;;;;1.51;89.15;99278.14;1723859;82;21120;-86
2021/01/27 00:07:57;;;;;;;11.97;6.40;;;;;;;1.50;88.92;99274.61;1717021;83;21139;-79
2021/01/27 00:10:28;;;;;;;8.67;5.17;;;;;;;1.50;89.01;99275.96;1696411;82;21122;-85
2021/01/27 00:12:56;;;;;;;11.27;6.07;;;;;;;1.51;88.86;99273.58;1709894;83;21600;-77
2021/01/27 00:15:30;;;;;;;9.40;5.30;;;;;;;1.49;88.79;99270.28;1755170;82;21188;-72
2021/01/27 00:17:58;;;;;;;9.97;6.03;;;;;;;1.49;88.82;99266.75;1720146;82;21139;-72
2021/01/27 00:20:27;;;;;;;11.95;6.92;;;;;;;1.48;88.79;99265.09;1700368;83;21590;-76
2021/01/27 00:22:58;;;;;;;9.73;6.17;;;;;;;1.44;88.67;99263.88;1703545;82;21157;-76
2021/01/27 00:25:28;;;;;;;10.75;5.90;;;;;;;1.38;88.58;99266.06;1717390;83;21172;-77
2021/01/27 00:27:57;;;;;;;9.27;5.93;;;;;;;1.36;88.66;99267.64;1702918;83;21117;-75
2021/01/27 00:30:31;;;;;;;9.70;5.60;;;;;;;1.33;88.84;99272.10;1682452;84;21153;-74
2021/01/27 00:32:59;;;;;;;9.40;5.67;;;;;;;1.34;88.85;99264.84;1700235;83;21192;-74
2021/01/27 00:35:29;;;;;;;;;;;;;;;1.29;88.70;99259.55;1702354;84;21164;-77
2021/01/27 00:37:58;;;;;;;11.40;5.80;;;;;;;1.29;88.78;99262.80;1704959;83;20255;-78
2021/01/27 00:40:27;;;;;;;11.87;6.20;;;;;;;1.27;88.84;99260.81;1729146;83;21655;-77
2021/01/27 00:42:55;;;;;;;9.75;5.85;;;;;;;1.27;88.87;99252.72;1721447;83;21214;-76
2021/01/27 00:45:23;;;;;;;10.67;6.57;;;;;;;1.23;88.78;99259.08;1729705;83;21144;-77
2021/01/27 00:47:50;;;;;;;9.78;6.10;;;;;;;1.20;88.81;99264.05;1697270;83;21192;-75
2021/01/27 00:50:18;;;;;;;10.08;6.10;;;;;;;1.19;88.72;99265.08;1700283;84;21236;-76
2021/01/27 00:52:49;;;;;;;10.27;6.30;;;;;;;1.15;88.75;99251.22;1702211;83;21227;-78
2021/01/27 00:55:20;;;;;;;12.73;6.97;;;;;;;1.13;88.77;99251.12;1701676;83;21169;-78
2021/01/27 00:57:50;;;;;;;11.90;6.13;;;;;;;1.10;88.96;99255.08;1699328;83;21208;-73
2021/01/27 01:00:26;;;;;;;9.87;6.07;;;;;;;1.11;88.97;99258.60;1715229;83;21591;-73
2021/01/27 01:02:55;;;;;;;9.93;6.03;;;;;;;1.11;89.02;99251.87;1717401;83;21145;-70
2021/01/27 01:05:31;;;;;;;11.57;6.45;;;;;;;1.09;88.89;99248.02;1700882;83;21278;-73
2021/01/27 01:07:58;;;;;;;9.60;6.53;;;;;;;1.10;89.04;99240.77;1710102;83;21177;-73
2021/01/27 01:10:40;;;;;;;11.37;6.37;;;;;;;1.09;88.99;99239.94;1703554;83;21632;-74
2021/01/27 01:13:13;;;;;;;12.33;6.70;;;;;;;1.09;88.97;99235.06;1725058;83;21584;-73
2021/01/27 01:15:40;;;;;;;12.17;6.70;;;;;;;1.05;88.79;99237.88;1703541;83;21619;-76
2021/01/27 01:18:09;;;;;;;12.47;6.83;;;;;;;1.04;88.81;99234.87;1713746;83;21149;-73
2021/01/27 01:20:37;;;;;;;10.63;6.50;;;;;;;1.01;88.84;99236.12;1703418;83;21123;-75
2021/01/27 01:23:05;;;;;;;12.07;7.05;;;;;;;1.01;88.89;99233.97;1721365;83;21209;-76
2021/01/27 01:25:34;;;;;;;12.60;6.95;;;;;;;0.99;88.88;99225.25;1716919;82;21157;-75
2021/01/27 01:28:03;;;;;;;;;;;;;;;0.98;88.92;99220.92;1717684;83;21268;-73
2021/01/27 01:30:37;;;;;;;12.13;6.57;;;;;;;0.97;88.83;99214.70;1706961;83;20205;-73
2021/01/27 01:33:09;;;;;;;10.77;6.17;;;;;;;0.92;88.67;99223.10;1699741;84;21126;-76
2021/01/27 01:35:38;;;;;;;11.90;7.10;;;;;;;0.92;88.81;99223.10;1705926;83;21193;-75
2021/01/27 01:38:05;;;;;;;12.98;7.22;;;;;;;0.91;89.00;99220.12;1712421;84;21256;-75
2021/01/27 01:40:38;;;;;;;12.95;7.97;;;;;;;0.91;89.05;99215.53;1709051;83;21148;-75
2021/01/27 01:43:21;;;;;;;13.13;7.17;;;;;;;0.92;88.98;99218.55;1694860;85;21533;-76
2021/01/27 01:45:52;;;;;;;13.67;7.80;;;;;;;0.89;88.93;99232.43;1708752;82;21164;-76
2021/01/27 01:48:40;;;;;;;13.60;7.07;;;;;;;0.88;88.97;99228.10;1755590;82;21363;-74
2021/01/27 01:51:16;;;;;;;12.50;7.33;;;;;;;0.90;89.24;99221.98;1725559;82;21079;-72
2021/01/27 01:53:46;;;;;;;13.83;7.57;;;;;;;0.90;89.15;99215.24;1725159;82;21128;-77
2021/01/27 01:56:15;;;;;;;13.50;7.70;;;;;;;0.90;88.98;99221.98;1698514;81;21212;-73
2021/01/27 01:58:42;;;;;;;12.57;7.23;;;;;;;0.87;88.97;99226.44;1715690;83;21129;-77
2021/01/27 02:01:11;;;;;;;11.88;7.75;;;;;;;0.85;88.94;99219.61;1757094;81;21149;-77
2021/01/27 02:03:39;;;;;;;11.68;7.22;;;;;;;0.85;88.87;99227.69;1733227;81;21224;-73
2021/01/27 02:06:09;;;;;;;12.28;6.62;;;;;;;0.84;88.83;99236.28;1753813;81;21329;-74
2021/01/27 02:08:49;;;;;;;10.80;6.60;;;;;;;0.84;88.78;99239.48;1708665;81;21092;-74
2021/01/27 02:11:20;;;;;;;11.43;6.57;;;;;;;0.83;88.71;99245.92;1741773;82;21122;-74
2021/01/27 02:14:09;;;;;;;11.30;7.03;;;;;;;0.84;88.80;99240.83;1720983;82;21176;-75
2021/01/27 02:16:57;;;;;;;12.67;7.20;;;;;;;0.85;88.74;99234.42;1734174;81;21293;-77
2021/01/27 02:20:00;;;;;;;11.80;6.75;;;;;;;0.87;88.82;99232.33;1715601;82;21556;-78
2021/01/27 02:23:05;;;;;;;13.37;6.60;;;;;;;0.86;88.75;99223.97;1724267;83;21137;-75
2021/01/27 02:26:09;;;;;;;12.50;6.30;;;;;;;0.86;88.83;99196.48;1667234;83;21132;-77
2021/01/27 02:29:10;;;;;;;11.53;6.07;;;;;;;0.86;88.71;99211.84;1645272;85;21161;-78
2021/01/27 02:32:25;;;;;;;10.40;5.93;;;;;;;0.84;88.78;99223.32;1661682;86;21140;-76
2021/01/27 02:35:12;;;;;;;12.40;6.87;;;;;;;0.81;88.60;99241.28;1656500;83;21187;-76
2021/01/27 02:38:01;;;;;;;11.87;6.83;;;;;;;0.82;88.81;99230.28;1725357;83;21301;-76
2021/01/27 02:40:49;;;;;;;10.23;6.40;;;;;;;0.83;88.81;99214.44;1723677;83;21287;-76
2021/01/27 02:43:26;;;;;;;12.85;6.37;;;;;;;0.84;88.77;99220.62;1735962;82;21569;-76
2021/01/27 02:46:02;;;;;;;11.27;6.60;;;;;;;0.79;88.55;99214.54;1735468;81;21137;-76
2021/01/27 02:49:05;;;;;;;11.47;6.20;;;;;;;0.75;88.73;99205.23;1742799;82;21124;-75
2021/01/27 02:51:50;;;;;;;10.53;6.10;;;;;;;0.75;88.88;99216.01;1693835;83;21164;-76
2021/01/27 02:54:28;;;;;;;11.87;6.13;;;;;;;0.74;88.89;99222.94;1723841;82;21175;-75
2021/01/27 02:57:23;;;;;;;11.48;5.97;;;;;;;0.73;88.97;99217.26;1725375;83;21662;-76
2021/01/27 02:59:55;;;;;;;10.60;5.90;;;;;;;0.73;88.99;99212.70;1748565;81;21717;-78
2021/01/27 03:02:29;;;;;;;10.73;6.57;;;;;;;0.74;88.85;99207.61;1724470;82;21184;-76
2021/01/27 03:05:18;;;;;;;10.10;6.57;;;;;;;0.70;88.72;99206.91;1724888;81;21680;-78
2021/01/27 03:07:50;;;;;;;12.90;7.50;;;;;;;0.66;88.71;99202.44;1714322;83;21604;-79
2021/01/27 03:10:25;;;;;;;11.23;6.47;;;;;;;0.63;88.89;99203.69;1748018;81;21694;-76
2021/01/27 03:12:53;;;;;;;10.30;6.00;;;;;;;0.63;89.07;99200.20;1704860;82;21141;-76
2021/01/27 03:15:23;;;;;;;10.60;6.10;;;;;;;0.63;89.10;99189.43;1708498;81;21181;-79
2021/01/27 03:17:58;;;;;;;8.80;5.95;;;;;;;0.63;89.24;99190.23;1707882;84;21153;-78
2021/01/27 03:20:34;;;;;;;9.43;5.73;;;;;;;0.65;89.29;99184.66;1707840;84;21156;-79
2021/01/27 03:23:18;;;;;;;10.77;6.00;;;;;;;0.71;89.36;99191.06;1725571;82;21279;-79
2021/01/27 03:26:00;;;;;;;11.30;6.37;;;;;;;0.73;89.31;99189.81;1727437;82;21120;-79
2021/01/27 03:28:33;;;;;;;11.77;6.60;;;;;;;0.76;89.28;99183.18;1706722;83;21177;-81
2021/01/27 03:31:01;;;;;;;10.20;6.00;;;;;;;0.76;89.05;99191.26;1708739;81;21134;-80
2021/01/27 03:33:57;;;;;;;11.38;6.35;;;;;;;0.75;89.11;99186.90;1709062;82;21183;-79
2021/01/27 03:36:25;;;;;;;11.40;6.60;;;;;;;0.73;88.84;99190.33;1707936;83;22368;-79
2021/01/27 03:38:53;;;;;;;10.27;6.03;;;;;;;0.68;89.01;99185.58;1707405;82;21114;-78
2021/01/27 03:41:36;;;;;;;11.22;6.90;;;;;;;0.64;88.94;99183.81;1693287;83;21150;-80
2021/01/27 03:44:14;;;;;;;10.20;5.97;;;;;;;0.64;89.28;99175.74;1726169;81;21112;-78
2021/01/27 03:46:59;;;;;;;9.08;5.65;;;;;;;0.69;89.40;99182.34;1715229;83;21604;-75
2021/01/27 03:49:31;;;;;;;9.00;5.60;;;;;;;0.72;89.41;99180.58;1699822;83;21109;-78
2021/01/27 03:52:19;;;;;;;9.87;5.80;;;;;;;0.74;89.50;99177.16;1700291;84;21608;-76
2021/01/27 03:54:56;;;;;;;9.23;5.27;;;;;;;0.77;89.48;99183.47;1699684;83;21606;-78
2021/01/27 03:57:29;;;;;;;10.57;6.00;;;;;;;0.81;89.52;99186.86;1709561;83;21256;-76
2021/01/27 03:59:58;;;;;;;8.57;5.30;;;;;;;0.83;89.40;99183.47;1721906;82;21231;-75
2021/01/27 04:02:26;;;;;;;8.83;5.50;;;;;;;0.85;89.34;99185.42;1755797;82;21570;-76
2021/01/27 04:04:54;;;;;;;10.00;5.67;;;;;;;0.86;89.26;99179.52;1705035;82;21307;-76
2021/01/27 04:07:22;;;;;;;10.50;6.00;;;;;;;0.84;89.20;99182.41;1707470;84;21660;-77
2021/01/27 04:09:50;;;;;;;10.28;6.28;;;;;;;0.82;89.11;99176.92;1712000;82;21192;-74
2021/01/27 04:12:18;;;;;;;10.05;6.35;;;;;;;0.80;89.15;99173.62;1730715;82;21135;-75
2021/01/27 04:14:46;;;;;;;9.93;6.10;;;;;;;0.78;89.23;99170.33;1726895;82;21128;-76
2021/01/27 04:17:27;;;;;;;10.08;6.28;;;;;;;0.79;89.40;99170.09;1727642;82;21192;-80
2021/01/27 04:19:57;;;;;;;9.47;5.70;;;;;;;0.78;89.24;99173.84;1727025;82;21231;-78
2021/01/27 04:22:25;;;;;;;11.03;6.60;;;;;;;0.77;89.28;99174.04;1722756;82;21164;-80
2021/01/27 04:24:54;;;;;;;9.93;5.83;;;;;;;0.77;89.30;99175.39;1723247;82;21170;-77
2021/01/27 04:27:23;;;;;;;10.47;6.67;;;;;;;0.77;89.34;99178.08;1713929;83;21117;-75
2021/01/27 04:29:51;;;;;;;9.03;5.50;;;;;;;0.78;89.31;99177.05;1723033;82;21265;-76
2021/01/27 04:32:19;;;;;;;9.60;5.65;;;;;;;0.78;89.43;99175.71;1694174;84;21192;-75
2021/01/27 04:34:47;;;;;;;;;;;;;;;0.77;89.34;99167.31;1728440;81;21170;-78
2021/01/27 04:37:15;;;;;;;11.78;6.15;;;;;;;0.80;89.35;99165.03;1732085;82;20476;-78
2021/01/27 04:39:44;;;;;;;10.47;6.30;;;;;;;0.78;89.25;99155.52;1725243;83;21144;-74
2021/01/27 04:42:12;;;;;;;9.33;6.00;;;;;;;0.77;89.38;99148.45;1728660;81;21259;-76
2021/01/27 04:44:40;;;;;;;11.03;5.60;;;;;;;0.76;89.07;99150.31;1725645;83;21132;-74
2021/01/27 04:47:32;;;;;;;10.17;6.47;;;;;;;0.75;89.30;99147.34;1726343;81;21134;-74
2021/01/27 04:50:06;;;;;;;11.10;6.80;;;;;;;0.73;89.39;99135.13;1720023;83;21557;-77
2021/01/27 04:53:04;;;;;;;10.90;6.33;;;;;;;0.77;89.45;99144.42;1749365;81;21152;-76
2021/01/27 04:55:47;;;;;;;12.28;7.33;;;;;;;0.78;89.39;99148.27;1725379;82;21137;-72
2021/01/27 04:58:35;;;;;;;10.60;6.53;;;;;;;0.78;89.23;99149.61;1725167;81;21151;-73
2021/01/27 05:01:23;;;;;;;11.17;7.00;;;;;;;0.78;89.29;99144.73;1725967;83;21199;-73
2021/01/27 05:04:10;;;;;;;10.60;6.70;;;;;;;0.81;89.49;99153.20;1712819;83;21144;-75
2021/01/27 05:06:42;;;;;;;9.77;6.40;;;;;;;0.85;89.50;99154.95;1703736;83;21220;-74
2021/01/27 05:09:29;;;;;;;11.80;6.93;;;;;;;0.86;89.36;99148.55;1707621;83;21128;-76
2021/01/27 05:11:58;;;;;;;11.00;7.00;;;;;;;0.87;89.23;99152.36;1710533;83;21254;-76
2021/01/27 05:14:25;;;;;;;;;;;;;;;0.87;88.99;99147.48;1702650;84;21137;-77
2021/01/27 05:16:53;;;;;;;10.35;6.75;;;;;;;0.84;89.13;99140.66;1700038;83;20563;-76
2021/01/27 05:19:21;;;;;;;10.98;7.25;;;;;;;0.85;89.19;99135.59;1699821;83;21278;-77
2021/01/27 05:21:54;;;;;;;10.78;6.62;;;;;;;0.86;89.31;99130.49;1719035;83;21125;-79
2021/01/27 05:24:22;;;;;;;10.13;6.60;;;;;;;0.88;89.39;99123.05;1700221;83;21136;-76
2021/01/27 05:27:02;;;;;;;11.73;7.15;;;;;;;0.91;89.28;99119.10;1703668;83;21165;-76
2021/01/27 05:29:41;;;;;;;10.37;6.37;;;;;;;0.91;89.17;99123.14;1729456;81;21177;-77
2021/01/27 05:32:18;;;;;;;12.40;7.13;;;;;;;0.89;89.13;99115.25;1707093;83;21215;-73
2021/01/27 05:34:53;;;;;;;10.77;6.80;;;;;;;0.88;89.18;99123.56;1728123;81;21235;-80
2021/01/27 05:37:33;;;;;;;11.97;7.00;;;;;;;0.88;88.95;99128.95;1727879;82;21777;-76
2021/01/27 05:40:18;;;;;;;11.67;6.73;;;;;;;0.83;89.02;99126.91;1735843;81;21126;-74
2021/01/27 05:42:46;;;;;;;10.90;6.57;;;;;;;0.84;89.32;99109.69;1733474;82;21598;-72
2021/01/27 05:45:38;;;;;;;12.35;7.60;;;;;;;0.88;89.34;99112.79;1685578;82;21668;-73
2021/01/27 05:48:34;;;;;;;11.37;6.50;;;;;;;0.90;89.31;99108.01;1719966;82;21547;-78
2021/01/27 05:51:12;;;;;;;10.97;6.50;;;;;;;0.89;89.18;99111.73;1703656;83;21638;-77
2021/01/27 05:53:40;;;;;;;11.90;7.00;;;;;;;0.87;89.27;99110.61;1704749;83;21248;-77
2021/01/27 05:56:18;;;;;;;9.70;6.25;;;;;;;0.91;89.43;99104.28;1710514;83;21118;-83
2021/01/27 05:59:04;;;;;;;9.77;6.10;;;;;;;0.92;89.26;99105.92;1710604;83;21148;-79
2021/01/27 06:01:41;;;;;;;10.37;5.67;;;;;;;0.93;89.35;99101.68;1705290;83;21186;-82
2021/01/27 06:04:17;;;;;;;9.50;5.70;;;;;;;0.92;89.06;99092.45;1730234;82;21265;-77
2021/01/27 06:07:11;;;;;;;10.20;5.73;;;;;;;0.93;89.11;99096.81;1707469;83;21359;-78
2021/01/27 06:09:50;;;;;;;9.53;5.70;;;;;;;0.93;89.10;99086.86;1716780;83;21202;-82
2021/01/27 06:12:25;;;;;;;11.13;6.37;;;;;;;0.95;89.21;99085.30;1678970;84;21141;-78
2021/01/27 06:15:08;;;;;;;10.17;5.40;;;;;;;0.97;89.28;99081.34;1707950;83;21172;-80
2021/01/27 06:17:43;;;;;;;10.00;5.33;;;;;;;0.99;89.21;99074.38;1696919;83;21156;-73
2021/01/27 06:20:30;;;;;;;10.07;5.57;;;;;;;1.00;89.23;99074.19;1721971;83;21521;-74
2021/01/27 06:23:41;;;;;;;7.63;4.57;;;;;;;1.00;89.11;99072.00;1701746;83;21643;-74
2021/01/27 06:26:52;;;;;;;9.00;4.70;;;;;;;0.97;88.54;99077.30;1727090;81;21975;-81
2021/01/27 06:29:40;;;;;;;8.97;4.97;;;;;;;0.98;89.04;99069.53;1724704;83;21656;-73
2021/01/27 06:32:33;;;;;;;9.07;5.07;;;;;;;0.98;88.82;99052.54;1695143;82;21208;-74
2021/01/27 06:35:24;;;;;;;8.83;4.70;;;;;;;0.97;88.93;99053.56;1733290;82;21236;-81
2021/01/27 06:37:58;;;;;;;10.43;5.40;;;;;;;0.95;89.05;99050.27;1728619;82;21259;-83
2021/01/27 06:41:18;;;;;;;9.53;4.87;;;;;;;0.94;89.02;99048.61;1708472;83;21145;-80
2021/01/27 06:44:24;;;;;;;8.40;4.47;;;;;;;0.94;89.21;99045.91;1705966;83;21153;-79
2021/01/27 06:47:11;;;;;;;8.37;4.63;;;;;;;0.95;89.23;99040.84;1739641;82;21148;-73
2021/01/27 06:50:04;;;;;;;9.53;5.20;;;;;;;0.95;89.05;99040.84;1724615;83;21139;-77
2021/01/27 06:53:20;;;;;;;10.10;5.50;;;;;;;0.98;89.13;99043.11;1724111;82;21144;-79
2021/01/27 06:56:12;;;;;;;9.60;5.30;;;;;;;0.96;89.07;99035.77;1709359;83;21219;-76
2021/01/27 06:58:55;;;;;;;10.53;4.73;;;;;;;0.96;89.35;99042.50;1710172;83;21168;-80
2021/01/27 07:02:07;;;;;;;8.53;5.07;;;;;;;0.95;89.34;99042.19;1711723;83;21157;-79
2021/01/27 07:04:59;;;;;;;11.30;5.57;;;;;;;0.94;89.23;99041.88;1703113;82;21113;-80
2021/01/27 07:08:05;;;;;;;10.00;5.70;;;;;;;0.96;89.40;99037.12;1710075;83;21612;-80
2021/01/27 07:11:02;;;;;;;12.17;6.83;;;;;;;0.98;89.41;99026.95;1672479;83;21141;-80
2021/01/27 07:13:50;;;;;;;10.37;5.83;;;;;;;0.97;89.15;99031.50;1700044;83;21543;-78
2021/01/27 07:16:44;;;;;;;10.93;6.50;;;;;;;0.97;89.39;99034.71;1711599;83;21152;-75
2021/01/27 07:20:02;;;;;;;14.70;6.60;;;;;;;0.98;89.30;99033.68;1708587;82;22118;-73
2021/01/27 07:23:01;;;;;;;10.53;6.13;;;;;;;1.01;89.49;99044.03;1610634;88;21201;-73
2021/01/27 07:26:01;;;;;;;12.00;6.33;;;;;;;1.04;89.20;99044.92;1769715;80;21148;-73
2021/01/27 07:29:01;;;;;;;11.83;6.70;;;;;;;1.03;89.42;99022.56;1758891;81;21132;-74
2021/01/27 07:31:54;;;;;;;11.10;6.07;;;;;;;1.04;89.26;99021.50;1767982;80;21144;-73
2021/01/27 07:34:44;;;;;;;11.00;6.30;;;;;;;1.04;89.33;99015.28;1768660;80;21168;-74
2021/01/27 07:37:26;;;;;;;12.17;6.90;;;;;;;1.04;89.35;99020.16;1759176;80;21481;-74
2021/01/27 07:40:05;;;;;;;9.60;5.37;;;;;;;1.06;89.42;99021.30;1746167;80;21236;-73
2021/01/27 07:42:57;;;;;;;10.37;5.83;;;;;;;1.07;89.27;99022.42;1788689;80;21579;-72
2021/01/27 07:45:33;;;;;;;12.00;6.57;;;;;;;1.07;89.37;99022.94;1768733;80;21573;-74
2021/01/27 07:48:18;;;;;;;11.40;6.50;;;;;;;1.11;89.69;99031.70;1765397;80;21140;-74
2021/01/27 07:50:56;;;;;;;10.80;5.80;;;;;;;1.14;89.34;99034.48;1763324;80;21587;-81
2021/01/27 07:53:39;;;;;;;11.55;6.10;;;;;;;1.13;89.55;99032.86;1759463;81;21113;-74
2021/01/27 07:56:23;;;;;;;11.23;6.63;;;;;;;1.12;89.61;99031.19;1759762;80;21144;-75
2021/01/27 07:59:18;;;;;;;11.67;6.00;;;;;;;1.12;89.63;99029.84;1781589;80;21132;-81
2021/01/27 08:02:09;;;;;;;11.17;6.23;;;;;;;1.14;89.79;99030.45;1783608;80;21177;-82
2021/01/27 08:05:08;;;;;;;12.70;7.50;;;;;;;1.15;89.71;99036.16;1760051;80;21251;-73
2021/01/27 08:07:43;;;;;;;11.53;5.27;;;;;;;1.18;89.82;99038.42;1731417;81;21581;-81
2021/01/27 08:10:19;;;;;;;12.23;5.80;;;;;;;1.20;89.72;99041.72;1736016;82;21173;-81
2021/01/27 08:12:56;;;;;;;11.17;6.07;;;;;;;1.21;89.86;99047.42;1734598;81;21590;-82
2021/01/27 08:15:30;;;;;;;11.63;6.50;;;;;;;1.22;89.81;99036.41;1737087;82;21114;-74
2021/01/27 08:18:19;;;;;;;13.03;7.03;;;;;;;1.26;89.97;99034.91;1734888;81;21233;-82
2021/01/27 08:20:48;;;;;;;12.87;7.03;;;;;;;1.27;89.87;99032.53;1693076;84;21674;-83
2021/01/27 08:23:33;;;;;;;13.30;6.22;;;;;;;1.33;90.15;99027.31;1666455;84;21193;-73
2021/01/27 08:26:04;;;;;;;10.70;5.97;;;;;;;1.35;90.00;99022.52;1704442;84;21166;-83
2021/01/27 08:28:44;;;;;;;10.63;6.33;;;;;;;1.38;89.99;99011.31;1703277;83;21119;-76
2021/01/27 08:31:18;;;;;;;11.30;6.40;;;;;;;1.42;90.00;99004.45;1704190;83;21179;-82
2021/01/27 08:33:55;;;;;;;11.23;6.17;;;;;;;1.45;89.92;98999.94;1700859;83;21558;-73
2021/01/27 08:36:35;;;;;;;12.20;6.83;;;;;;;1.48;89.90;98992.25;1684844;83;21163;-81
2021/01/27 08:39:07;;;;;;;11.80;6.93;;;;;;;1.51;89.91;98991.81;1702401;83;21148;-74
2021/01/27 08:41:51;;;;;;;11.33;6.73;;;;;;;1.57;89.90;98994.95;1703955;83;21248;-82
2021/01/27 08:44:25;;;;;;;9.37;5.70;;;;;;;1.63;89.90;98995.43;1703849;83;21175;-79
2021/01/27 08:46:58;;;;;;;11.87;6.17;;;;;;;1.68;89.91;98994.23;1675124;84;21304;-78
2021/01/27 08:49:57;;;;;;;12.10;7.00;;;;;;;1.72;89.84;98994.08;1652965;84;21135;-75
2021/01/27 08:52:41;;;;;;;11.10;6.20;;;;;;;1.78;89.72;98989.67;1703276;83;21234;-79
2021/01/27 08:55:30;;;;;;;12.13;6.30;;;;;;;1.83;89.64;98984.44;1702672;83;21213;-73
2021/01/27 08:58:28;;;;;;;12.67;7.00;;;;;;;1.82;89.22;98983.61;1672129;83;21107;-77
2021/01/27 09:01:12;;;;;;;13.27;6.73;;;;;;;1.86;89.58;98982.13;1666938;84;21691;-77
2021/01/27 09:03:49;;;;;;;11.47;6.37;;;;;;;1.93;89.80;98970.73;1700291;83;21131;-71
2021/01/27 09:06:41;;;;;;;11.23;7.03;;;;;;;2.01;89.76;98967.44;1702746;83;21111;-71
2021/01/27 09:09:30;;;;;;;10.77;6.63;;;;;;;2.07;89.52;98957.10;1703255;83;21115;-72
2021/01/27 09:12:05;;;;;;;13.70;7.90;;;;;;;2.12;89.37;98949.15;1702145;83;21104;-71
2021/01/27 09:14:33;;;;;;;12.20;7.67;;;;;;;2.14;89.28;98948.39;1698566;84;21206;-73
2021/01/27 09:17:04;;;;;;;14.30;8.23;;;;;;;2.18;89.34;98948.23;1702628;83;21168;-75
2021/01/27 09:19:35;;;;;;;16.03;8.67;;;;;;;2.22;89.44;98950.80;1733607;82;21553;-79
2021/01/27 09:22:18;;;;;;;13.43;8.07;;;;;;;2.23;89.36;98951.07;1704766;83;21482;-80
2021/01/27 09:24:51;;;;;;;23.30;12.90;;;;;;;2.23;89.30;98950.55;1756154;81;21242;-81
2021/01/27 09:27:25;;;;;;;12.43;7.43;;;;;;;2.26;89.41;98950.11;1743772;80;21167;-82
2021/01/27 09:30:09;;;;;;;14.13;8.07;;;;;;;2.28;89.47;98943.95;1723560;83;21240;-80
2021/01/27 09:32:39;;;;;;;14.27;7.63;;;;;;;2.30;89.37;98945.88;1736167;81;21168;-81
2021/01/27 09:35:23;;;;;;;14.40;7.92;;;;;;;2.34;89.43;98934.13;1729097;81;21578;-80
2021/01/27 09:38:00;;;;;;;12.93;7.17;;;;;;;2.40;89.64;98938.62;1726574;81;21123;-81
2021/01/27 09:40:33;;;;;;;20.17;11.73;;;;;;;2.47;89.49;98929.89;1728349;82;21165;-80
2021/01/27 09:43:07;;;;;;;18.65;11.05;;;;;;;2.52;89.47;98925.98;1730625;81;21206;-79
2021/01/27 09:45:37;;;;;;;21.60;8.83;;;;;;;2.58;89.37;98931.28;1729705;81;21142;-82
2021/01/27 09:48:06;;;;;;;16.55;7.83;;;;;;;2.65;89.32;98916.87;1729286;81;21146;-80
2021/01/27 09:50:38;;;;;;;13.00;7.92;;;;;;;2.69;89.36;98913.47;1728210;81;21130;-73
2021/01/27 09:53:06;;;;;;;14.35;7.87;;;;;;;2.75;89.43;98909.03;1729349;81;21242;-76
2021/01/27 09:55:33;;;;;;;17.95;9.78;;;;;;;2.81;89.37;98910.27;1736469;80;21174;-74
2021/01/27 09:58:04;;;;;;;17.10;10.70;;;;;;;2.82;88.92;98918.68;1720661;81;21803;-73
2021/01/27 10:00:36;;;;;;;12.98;8.53;;;;;;;2.81;89.09;98922.42;1727390;83;21177;-74
2021/01/27 10:03:27;;;;;;;18.67;11.03;;;;;;;2.85;89.17;98924.15;1744415;81;21193;-77
2021/01/27 10:05:56;;;;;;;20.27;9.53;;;;;;;2.86;89.03;98919.85;1729022;80;21288;-79
2021/01/27 10:08:34;;;;;;;17.48;10.05;;;;;;;2.89;89.29;98917.21;1727436;81;21538;-76
2021/01/27 10:11:11;;;;;;;17.45;9.43;;;;;;;2.96;89.28;98908.50;1707241;82;21127;-78
2021/01/27 10:13:41;;;;;;;16.57;9.10;;;;;;;2.98;88.81;98909.91;1702896;83;21099;-78
2021/01/27 10:16:14;;;;;;;15.98;9.20;;;;;;;3.01;89.06;98906.72;1700042;83;21177;-86
2021/01/27 10:18:44;;;;;;;19.98;9.95;;;;;;;3.05;89.04;98905.22;1737840;83;21153;-80
2021/01/27 10:21:15;;;;;;;24.57;11.45;;;;;;;3.10;88.99;98908.05;1704413;83;21242;-82
2021/01/27 10:23:46;;;;;;;19.10;11.25;;;;;;;3.15;88.96;98900.06;1704856;83;21139;-85
2021/01/27 10:26:40;;;;;;;23.52;11.40;;;;;;;3.17;88.86;98892.53;1678822;83;21165;-87
2021/01/27 10:29:27;;;;;;;19.67;11.30;;;;;;;3.19;88.86;98893.11;1712914;83;21554;-82
2021/01/27 10:31:55;;;;;;;21.50;11.63;;;;;;;3.18;88.64;98890.13;1713075;81;21123;-85
2021/01/27 10:34:44;;;;;;;18.92;11.28;;;;;;;3.17;88.91;98894.41;1707976;83;21167;-83
2021/01/27 10:37:46;;;;;;;22.50;11.05;;;;;;;3.15;89.04;98893.82;1699915;84;21591;-85
2021/01/27 10:40:26;;;;;;;22.17;11.38;;;;;;;3.15;89.06;98882.48;1692739;83;21553;-84
2021/01/27 10:43:00;;;;;;;18.40;11.33;;;;;;;3.15;89.04;98877.60;1726880;83;21200;-83
2021/01/27 10:45:36;;;;;;;18.92;11.45;;;;;;;3.15;89.25;98873.02;1704843;83;21186;-84
2021/01/27 10:48:13;;;;;;;19.15;11.53;;;;;;;3.18;89.31;98872.56;1703864;83;21146;-82
2021/01/27 10:50:45;;;;;;;18.92;11.90;;;;;;;3.18;89.43;98869.86;1703252;83;21170;-82
2021/01/27 10:53:17;;;;;;;20.30;12.07;;;;;;;3.23;89.59;98862.91;1700106;84;21170;-79
2021/01/27 10:55:48;;;;;;;20.02;11.70;;;;;;;3.24;89.53;98863.22;1703133;84;21155;-76
2021/01/27 10:58:16;;;;;;;20.68;13.08;;;;;;;3.27;89.70;98855.96;1707722;83;21110;-79
2021/01/27 11:00:45;;;;;;;21.45;12.10;;;;;;;3.31;89.81;98852.58;1723466;81;21128;-84
2021/01/27 11:03:13;;;;;;;20.68;12.20;;;;;;;3.32;89.74;98846.09;1734994;81;21210;-78
2021/01/27 11:05:42;;;;;;;22.73;12.80;;;;;;;3.35;89.92;98843.44;1729178;81;21126;-77
